Cruzeiro Do Canal — CSVG — position and weather

sailwx.info

Track history (hours):
 
Tides and Currents Weather Stations Pressure Air Temp Water Temp Dewpoint Dewpoint Depression Visibility Wind Speed Wind Dir Waves Ship Positions

Cruzeiro Do Canal

Last reported at 2014-Dec-22 21:33 UTC. Time now 2014-Dec-22 23:29 UTC.
Position N 38°32' W 028°37'.

Length 32 m.

Type: Passenger vessel. MMSI: 204701250.

Date/timePositionNaut miles runAvg speedWind from/ knotsBaromVisibWave heightAir tempDewpointWater temp
2014-Dec-22 21:33N 38°32' W 028°37'1 1.3
2014-Dec-22 20:33N 38°32' W 028°36'  
2014-Dec-19 12:33N 38°34' W 028°33'1111.0
2014-Dec-19 11:34N 38°32' W 028°19'1010.4
2014-Dec-19 10:33N 38°41' W 028°12'9 9.3
2014-Dec-19 09:33N 38°33' W 028°18'9 8.9
2014-Dec-19 08:33N 38°34' W 028°30'6 0.7
2014-Dec-18 23:34N 38°32' W 028°37'2 0.6
2014-Dec-18 19:33N 38°32' W 028°34'0 0.5
2014-Dec-18 18:33N 38°32' W 028°35'2 0.4
2014-Dec-18 13:33N 38°32' W 028°37'8 7.8
2014-Dec-18 12:33N 38°35' W 028°28'1212.2
2014-Dec-18 11:34N 38°40' W 028°14'6 6.2
2014-Dec-18 10:33N 38°37' W 028°21'1010.0
2014-Dec-18 09:33N 38°32' W 028°32'3 0.2
2014-Dec-17 13:33N 38°32' W 028°36'8 8.2
2014-Dec-17 12:34N 38°36' W 028°27'1111.3
2014-Dec-17 11:34N 38°40' W 028°13'7 7.4
2014-Dec-17 10:33N 38°37' W 028°22'9 9.2
2014-Dec-17 09:34N 38°32' W 028°32'4 4.3
2014-Dec-17 08:34N 38°32' W 028°37'0 0.0
2014-Dec-16 20:03N 38°32' W 028°37'0 0.5
2014-Dec-16 19:33N 38°32' W 028°37'1 1.1
2014-Dec-16 18:34N 38°32' W 028°36'1 1.3
2014-Dec-16 17:33N 38°32' W 028°37'0 0.0
2014-Dec-16 16:33N 38°32' W 028°37'0 0.0
2014-Dec-16 15:33N 38°32' W 028°37'0 0.0
2014-Dec-16 14:34N 38°32' W 028°37'0 0.0
2014-Dec-16 13:33N 38°32' W 028°37'5 4.7
2014-Dec-16 12:33N 38°34' W 028°31'10 9.7
2014-Dec-16 11:33N 38°32' W 028°19'1010.4
2014-Dec-16 10:33N 38°41' W 028°12'1010.4
2014-Dec-16 09:34N 38°32' W 028°19'9 9.1
2014-Dec-16 08:33N 38°34' W 028°31'  
Track history (hours):
 
Tides and Currents Weather Stations Pressure Air Temp Water Temp Dewpoint Dewpoint Depression Visibility Wind Speed Wind Dir Waves Ship Positions

Cruzeiro Do Canal

Last reported at 2014-Dec-22 21:33 UTC. Time now 2014-Dec-22 23:29 UTC.
Position N 38°32' W 028°37'.

Length 32 m.

Type: Passenger vessel. MMSI: 204701250.

Date/timePositionNaut miles runAvg speedWind from/ knotsBaromVisibWave heightAir tempDewpointWater temp
2014-Dec-22 21:33N 38°32' W 028°37'1 1.3
2014-Dec-22 20:33N 38°32' W 028°36'  
2014-Dec-19 12:33N 38°34' W 028°33'1111.0
2014-Dec-19 11:34N 38°32' W 028°19'1010.4
2014-Dec-19 10:33N 38°41' W 028°12'9 9.3
2014-Dec-19 09:33N 38°33' W 028°18'9 8.9
2014-Dec-19 08:33N 38°34' W 028°30'6 0.7
2014-Dec-18 23:34N 38°32' W 028°37'2 0.6
2014-Dec-18 19:33N 38°32' W 028°34'0 0.5
2014-Dec-18 18:33N 38°32' W 028°35'2 0.4
2014-Dec-18 13:33N 38°32' W 028°37'8 7.8
2014-Dec-18 12:33N 38°35' W 028°28'1212.2
2014-Dec-18 11:34N 38°40' W 028°14'6 6.2
2014-Dec-18 10:33N 38°37' W 028°21'1010.0
2014-Dec-18 09:33N 38°32' W 028°32'3 0.2
2014-Dec-17 13:33N 38°32' W 028°36'8 8.2
2014-Dec-17 12:34N 38°36' W 028°27'1111.3
2014-Dec-17 11:34N 38°40' W 028°13'7 7.4
2014-Dec-17 10:33N 38°37' W 028°22'9 9.2
2014-Dec-17 09:34N 38°32' W 028°32'4 4.3
2014-Dec-17 08:34N 38°32' W 028°37'0 0.0
2014-Dec-16 20:03N 38°32' W 028°37'0 0.5
2014-Dec-16 19:33N 38°32' W 028°37'1 1.1
2014-Dec-16 18:34N 38°32' W 028°36'1 1.3
2014-Dec-16 17:33N 38°32' W 028°37'0 0.0
2014-Dec-16 16:33N 38°32' W 028°37'0 0.0
2014-Dec-16 15:33N 38°32' W 028°37'0 0.0
2014-Dec-16 14:34N 38°32' W 028°37'0 0.0
2014-Dec-16 13:33N 38°32' W 028°37'5 4.7
2014-Dec-16 12:33N 38°34' W 028°31'10 9.7
2014-Dec-16 11:33N 38°32' W 028°19'1010.4
2014-Dec-16 10:33N 38°41' W 028°12'1010.4
2014-Dec-16 09:34N 38°32' W 028°19'9 9.1
2014-Dec-16 08:33N 38°34' W 028°31'  

Dump ship's entire track history